Terminal Aerodrome Forecast
Issued by NWS

Home | Current Version | Previous Version | Text Only | Print | Product List | Glossary On
Versions: 1 2 3 4 5 6 7 8 9 10 11 12 13 14 15 16 17 18 19 20 21 22 23
000
FTUS43 KMQT 262300
TAFSAW
TAF
KSAW 262335Z 2700/2724 02005KT P6SM -SN SCT006 OVC012
      TEMPO 2700/2703 BKN006
     FM270300 01004KT 3SM -SHSN OVC006
     FM270800 01005KT 1SM -SN OVC003
     FM271500 36009KT 3/4SM -SN OVC003
     FM272000 34008KT 3SM -SN OVC012
      AMD LTD TO CLD VIS AND WIND 2703/2711=

USA.gov is the U.S. government's official web portal to all federal, state and local government web resources and services.